createdAt,value
2018-08-12T00:00:28.981Z,100415.19
2018-08-12T00:02:57.780Z,100414.98
2018-08-12T00:05:25.484Z,100413.09
2018-08-12T00:07:53.184Z,100422.70
2018-08-12T00:10:25.322Z,100418.19
2018-08-12T00:12:52.883Z,100418.96
2018-08-12T00:15:22.145Z,100420.96
2018-08-12T00:17:49.601Z,100421.02
2018-08-12T00:20:19.265Z,100416.44
2018-08-12T00:22:47.485Z,100416.21
2018-08-12T00:25:16.634Z,100418.08
2018-08-12T00:27:44.197Z,100419.94
2018-08-12T00:30:14.765Z,100422.00
2018-08-12T00:32:42.362Z,100411.48
2018-08-12T00:35:12.833Z,100414.41
2018-08-12T00:37:40.937Z,100407.27
2018-08-12T00:40:10.708Z,100407.88
2018-08-12T00:42:38.360Z,100403.55
2018-08-12T00:45:09.784Z,100410.70
2018-08-12T00:47:37.386Z,100405.80
2018-08-12T00:50:06.516Z,100398.25
2018-08-12T00:52:34.148Z,100402.38
2018-08-12T00:55:01.693Z,100399.80
2018-08-12T00:57:29.309Z,100399.55
2018-08-12T00:59:57.012Z,100403.28
2018-08-12T01:02:24.632Z,100402.85
2018-08-12T01:04:52.234Z,100398.17
2018-08-12T01:07:19.797Z,100407.59
2018-08-12T01:09:48.009Z,100403.69
2018-08-12T01:12:15.485Z,100402.11
2018-08-12T01:14:43.157Z,100393.29
2018-08-12T01:17:10.771Z,100397.30
2018-08-12T01:19:38.369Z,100402.34
2018-08-12T01:22:06.046Z,100393.63
2018-08-12T01:24:33.748Z,100386.11
2018-08-12T01:27:01.992Z,100396.19
2018-08-12T01:29:29.665Z,100387.11
2018-08-12T01:31:57.267Z,100389.72
2018-08-12T01:34:24.893Z,100395.70
2018-08-12T01:36:52.441Z,100392.27
2018-08-12T01:39:20.049Z,100394.88
2018-08-12T01:41:47.585Z,100390.11
2018-08-12T01:44:15.184Z,100389.59
2018-08-12T01:46:42.812Z,100387.42
2018-08-12T01:49:10.478Z,100385.35
2018-08-12T01:51:38.793Z,100382.23
2018-08-12T01:54:06.413Z,100385.63
2018-08-12T01:56:34.021Z,100376.39
2018-08-12T01:59:01.581Z,100383.59
2018-08-12T02:01:29.210Z,100386.31
2018-08-12T02:03:56.810Z,100381.62
2018-08-12T02:06:24.408Z,100390.16
2018-08-12T02:08:52.038Z,100395.31
2018-08-12T02:11:19.686Z,100390.79
2018-08-12T02:13:47.334Z,100393.22
2018-08-12T02:16:14.952Z,100385.91
2018-08-12T02:18:42.528Z,100390.34
2018-08-12T02:21:10.132Z,100383.06
2018-08-12T02:23:37.762Z,100384.81
2018-08-12T02:26:05.416Z,100384.45
2018-08-12T02:28:33.026Z,100391.77
2018-08-12T02:31:00.638Z,100392.72
2018-08-12T02:33:28.286Z,100390.83
2018-08-12T02:35:55.953Z,100383.13
2018-08-12T02:38:23.502Z,100386.09
2018-08-12T02:40:51.145Z,100384.53
2018-08-12T02:43:18.727Z,100381.31
2018-08-12T02:45:46.341Z,100380.50
2018-08-12T02:48:13.971Z,100382.39
2018-08-12T02:50:42.077Z,100380.96
2018-08-12T02:53:09.742Z,100378.34
2018-08-12T02:55:37.321Z,100381.06
2018-08-12T02:58:04.952Z,100373.58
2018-08-12T03:00:32.508Z,100370.58
2018-08-12T03:03:00.124Z,100374.92
2018-08-12T03:05:27.697Z,100360.41
2018-08-12T03:07:55.329Z,100358.63
2018-08-12T03:10:22.978Z,100356.59
2018-08-12T03:12:50.622Z,100352.16
2018-08-12T03:15:18.183Z,100357.55
2018-08-12T03:17:45.766Z,100353.94
2018-08-12T03:20:15.367Z,100348.87
2018-08-12T03:22:42.986Z,100345.55
2018-08-12T03:25:10.982Z,100342.84
2018-08-12T03:27:38.866Z,100343.09
2018-08-12T03:30:07.316Z,100336.84
2018-08-12T03:32:35.010Z,100339.16
2018-08-12T03:35:02.728Z,100333.73
2018-08-12T03:37:31.204Z,100329.16
2018-08-12T03:39:58.849Z,100330.50
2018-08-12T03:42:26.438Z,100331.25
2018-08-12T03:44:54.040Z,100332.44
2018-08-12T03:47:21.632Z,100330.52
2018-08-12T03:49:49.264Z,100323.23
2018-08-12T03:52:16.865Z,100329.22
2018-08-12T03:54:44.422Z,100334.61
2018-08-12T03:57:12.096Z,100324.43
2018-08-12T03:59:39.662Z,100325.49
2018-08-12T04:02:07.661Z,100326.88
2018-08-12T04:04:35.234Z,100330.00
2018-08-12T04:07:02.781Z,100330.59
2018-08-12T04:09:30.445Z,100326.05
2018-08-12T04:11:57.991Z,100328.53
2018-08-12T04:14:25.592Z,100330.78
2018-08-12T04:16:59.490Z,100328.75
2018-08-12T04:19:28.198Z,100329.70
2018-08-12T04:21:55.786Z,100329.07
2018-08-12T04:24:23.560Z,100329.05
2018-08-12T04:26:51.148Z,100332.33
2018-08-12T04:29:18.816Z,100331.38
2018-08-12T04:31:46.446Z,100324.98
2018-08-12T04:34:14.103Z,100321.07
2018-08-12T04:36:41.877Z,100324.34
2018-08-12T04:39:11.495Z,100324.30
2018-08-12T04:41:39.674Z,100323.67
2018-08-12T04:44:07.250Z,100322.02
2018-08-12T04:46:35.493Z,100330.20
2018-08-12T04:49:03.084Z,100323.44
2018-08-12T04:51:30.703Z,100316.09
2018-08-12T04:53:58.261Z,100321.08
2018-08-12T04:56:25.812Z,100319.36
2018-08-12T04:58:53.645Z,100318.77
2018-08-12T05:01:21.289Z,100319.42
2018-08-12T05:03:48.861Z,100319.70
2018-08-12T05:06:16.513Z,100320.80
2018-08-12T05:08:44.292Z,100320.69
2018-08-12T05:11:11.883Z,100326.62
2018-08-12T05:13:39.571Z,100326.50
2018-08-12T05:16:07.356Z,100320.54
2018-08-12T05:18:35.086Z,100321.50
2018-08-12T05:21:02.738Z,100323.66
2018-08-12T05:23:30.328Z,100317.22
2018-08-12T05:25:57.888Z,100311.78
2018-08-12T05:28:25.604Z,100308.73
2018-08-12T05:30:53.193Z,100312.86
2018-08-12T05:33:20.806Z,100306.03
2018-08-12T05:35:48.426Z,100303.35
2018-08-12T05:38:16.052Z,100306.22
2018-08-12T05:40:43.706Z,100296.82
2018-08-12T05:43:18.105Z,100302.19
2018-08-12T05:45:45.725Z,100298.37
2018-08-12T05:48:13.357Z,100295.44
2018-08-12T05:50:40.935Z,100296.20
2018-08-12T05:53:08.498Z,100298.73
2018-08-12T05:55:36.097Z,100293.41
2018-08-12T05:58:03.802Z,100291.69
2018-08-12T06:00:31.390Z,100292.75
2018-08-12T06:02:58.918Z,100284.82
2018-08-12T06:05:26.475Z,100286.38
2018-08-12T06:07:54.082Z,100289.52
2018-08-12T06:10:21.621Z,100285.87
2018-08-12T06:12:49.218Z,100282.52
2018-08-12T06:15:17.520Z,100277.10
2018-08-12T06:17:45.361Z,100279.17
2018-08-12T06:20:13.662Z,100273.88
2018-08-12T06:22:41.263Z,100272.28
2018-08-12T06:25:10.028Z,100268.11
2018-08-12T06:27:37.643Z,100270.78
2018-08-12T06:30:08.980Z,100267.11
2018-08-12T06:32:37.115Z,100270.45
2018-08-12T06:35:04.960Z,100259.62
2018-08-12T06:37:32.530Z,100252.30
2018-08-12T06:40:00.149Z,100251.61
2018-08-12T06:42:27.766Z,100248.98
2018-08-12T06:44:55.400Z,100252.31
2018-08-12T06:47:23.086Z,100248.64
2018-08-12T06:49:51.503Z,100241.48
2018-08-12T06:52:19.710Z,100242.98
2018-08-12T06:54:47.330Z,100242.91
2018-08-12T06:57:14.880Z,100240.28
2018-08-12T06:59:42.452Z,100192.64
2018-08-12T07:02:10.898Z,100243.75
2018-08-12T07:04:38.547Z,100238.54
2018-08-12T07:07:06.652Z,100234.70
2018-08-12T07:09:34.278Z,100220.82
2018-08-12T07:12:01.995Z,100233.64
2018-08-12T07:14:29.622Z,100238.27
2018-08-12T07:16:57.779Z,100236.73
2018-08-12T07:19:25.349Z,100234.34
2018-08-12T07:21:52.893Z,100233.28
2018-08-12T07:24:20.579Z,100232.93
2018-08-12T07:26:48.178Z,100228.77
2018-08-12T07:29:15.789Z,100230.18
2018-08-12T07:31:43.445Z,100221.82
2018-08-12T07:34:11.377Z,100215.73
2018-08-12T07:36:39.187Z,100220.33
2018-08-12T07:39:08.809Z,100214.80
2018-08-12T07:41:39.675Z,100211.11
2018-08-12T07:44:07.241Z,100211.08
2018-08-12T07:46:34.861Z,100210.89
2018-08-12T07:49:02.589Z,100207.86
2018-08-12T07:51:30.189Z,100210.98
2018-08-12T07:53:57.870Z,100212.05
2018-08-12T07:56:25.487Z,100206.52
2018-08-12T07:58:53.107Z,100206.16
2018-08-12T08:01:20.801Z,100204.16
2018-08-12T08:03:48.375Z,100202.94
2018-08-12T08:06:15.996Z,100198.53
2018-08-12T08:08:43.626Z,100197.97
2018-08-12T08:11:11.218Z,100192.45
2018-08-12T08:13:38.836Z,100188.34
2018-08-12T08:16:06.973Z,100190.38
2018-08-12T08:18:34.544Z,100182.05
2018-08-12T08:21:02.156Z,100180.94
2018-08-12T08:23:29.790Z,100174.83
2018-08-12T08:25:57.779Z,100180.53
2018-08-12T08:28:25.334Z,100177.97
2018-08-12T08:30:52.866Z,100177.41
2018-08-12T08:33:20.668Z,100174.62
2018-08-12T08:35:48.278Z,100175.63
2018-08-12T08:38:15.904Z,100174.52
2018-08-12T08:40:44.178Z,100174.40
2018-08-12T08:43:11.758Z,100171.82
2018-08-12T08:45:39.413Z,100163.07
2018-08-12T08:48:07.177Z,100167.70
2018-08-12T08:50:35.768Z,100167.00
2018-08-12T08:53:03.410Z,100165.94
2018-08-12T08:55:31.075Z,100157.98
2018-08-12T08:57:58.705Z,100162.65
2018-08-12T09:00:26.405Z,100155.33
2018-08-12T09:02:54.020Z,100150.80
2018-08-12T09:05:22.167Z,100148.09
2018-08-12T09:07:50.408Z,100147.45
2018-08-12T09:10:19.190Z,100143.56
2018-08-12T09:12:47.402Z,100141.07
2018-08-12T09:15:17.681Z,100147.95
2018-08-12T09:17:46.036Z,100134.13
2018-08-12T09:20:15.241Z,100141.86
2018-08-12T09:22:43.129Z,100135.06
2018-08-12T09:25:11.972Z,100133.39
2018-08-12T09:27:39.787Z,100129.84
2018-08-12T09:30:14.706Z,100122.98
2018-08-12T09:32:42.789Z,100130.55
2018-08-12T09:35:10.445Z,100129.32
2018-08-12T09:37:38.176Z,100119.45
2018-08-12T09:40:09.745Z,100125.41
2018-08-12T09:42:37.381Z,100120.30
2018-08-12T09:45:07.686Z,100111.33
2018-08-12T09:47:35.301Z,100107.33
2018-08-12T09:50:03.415Z,100107.91
2018-08-12T09:52:30.957Z,100102.84
2018-08-12T09:54:58.735Z,100095.28
2018-08-12T09:57:26.706Z,100097.30
2018-08-12T09:59:54.294Z,100084.98
2018-08-12T10:02:21.954Z,100088.94
2018-08-12T10:04:49.532Z,100090.66
2018-08-12T10:07:17.448Z,100091.45
2018-08-12T10:09:45.617Z,100088.81
2018-08-12T10:12:13.260Z,100088.17
2018-08-12T10:14:40.848Z,100090.05
2018-08-12T10:17:08.415Z,100074.81
2018-08-12T10:19:36.075Z,100069.12
2018-08-12T10:22:03.759Z,100066.63
2018-08-12T10:24:31.369Z,100066.97
2018-08-12T10:26:58.917Z,100058.73
2018-08-12T10:29:26.490Z,100052.36
2018-08-12T10:31:54.204Z,100059.69
2018-08-12T10:34:21.874Z,100054.45
2018-08-12T10:36:49.579Z,100044.37
2018-08-12T10:39:17.258Z,100041.59
2018-08-12T10:41:44.948Z,100047.52
2018-08-12T10:44:12.767Z,100043.48
2018-08-12T10:46:40.422Z,100042.45
2018-08-12T10:49:08.080Z,100035.17
2018-08-12T10:51:35.986Z,100036.57
2018-08-12T10:54:03.718Z,100038.09
2018-08-12T10:56:31.418Z,100040.95
2018-08-12T10:58:59.088Z,100028.01
2018-08-12T11:01:27.109Z,100030.09
2018-08-12T11:03:54.790Z,100027.12
2018-08-12T11:06:22.535Z,100021.57
2018-08-12T11:08:50.248Z,100020.16
2018-08-12T11:11:18.129Z,100030.41
2018-08-12T11:13:45.947Z,100027.91
2018-08-12T11:16:13.677Z,100015.55
2018-08-12T11:18:41.396Z,100013.83
2018-08-12T11:21:09.070Z,100013.38
2018-08-12T11:23:37.337Z,100006.67
2018-08-12T11:26:05.338Z,99999.34
2018-08-12T11:28:33.024Z,99997.11
2018-08-12T11:33:28.965Z,99989.63
2018-08-12T11:35:56.659Z,99982.80
2018-08-12T11:38:24.307Z,99986.30
2018-08-12T11:40:51.995Z,99990.27
2018-08-12T11:43:19.743Z,99973.36
2018-08-12T11:45:47.431Z,99990.54
2018-08-12T11:48:15.114Z,99972.59
2018-08-12T11:50:42.804Z,99971.48
2018-08-12T11:53:10.518Z,99967.20
2018-08-12T11:55:38.334Z,99966.55
2018-08-12T11:58:06.019Z,99958.05
2018-08-12T12:00:33.726Z,99953.09
2018-08-12T12:03:01.437Z,99954.92
2018-08-12T12:05:29.150Z,99954.00
2018-08-12T12:07:56.847Z,99958.23
2018-08-12T12:10:24.534Z,99954.35
2018-08-12T12:12:53.109Z,99959.38
2018-08-12T12:15:20.838Z,99958.16
2018-08-12T12:17:48.763Z,99952.30
2018-08-12T12:20:17.238Z,99951.52
2018-08-12T12:22:45.510Z,99940.61
2018-08-12T12:25:14.550Z,99945.92
2018-08-12T12:27:42.189Z,99936.30
2018-08-12T12:30:13.467Z,99941.36
2018-08-12T12:32:41.991Z,99935.94
2018-08-12T12:35:09.621Z,99947.33
2018-08-12T12:37:37.591Z,99930.38
2018-08-12T12:40:06.970Z,99931.58
2018-08-12T12:42:34.782Z,99924.49
2018-08-12T12:45:02.470Z,99923.84
2018-08-12T12:47:30.249Z,99922.57
2018-08-12T12:49:57.838Z,99916.81
2018-08-12T12:52:25.519Z,99913.97
2018-08-12T12:54:53.229Z,99921.49
2018-08-12T12:57:20.907Z,99904.35
2018-08-12T12:59:48.589Z,99897.73
2018-08-12T13:02:16.255Z,99891.77
2018-08-12T13:04:43.964Z,99889.01
2018-08-12T13:07:11.890Z,99891.44
2018-08-12T13:09:39.524Z,99889.19
2018-08-12T13:12:07.216Z,99887.49
2018-08-12T13:14:34.908Z,99881.14
2018-08-12T13:17:02.771Z,99888.05
2018-08-12T13:19:30.614Z,99869.39
2018-08-12T13:21:58.443Z,99876.75
2018-08-12T13:24:26.438Z,99874.51
2018-08-12T13:26:54.140Z,99865.36
2018-08-12T13:29:21.875Z,99855.78
2018-08-12T13:31:49.662Z,99852.58
2018-08-12T13:34:17.366Z,99849.70
2018-08-12T13:36:45.040Z,99821.47
2018-08-12T13:39:13.216Z,99824.90
2018-08-12T13:41:40.871Z,99826.92
2018-08-12T13:44:08.577Z,99833.30
2018-08-12T13:46:36.195Z,99821.07
2018-08-12T13:49:03.949Z,99823.82
2018-08-12T13:51:31.839Z,99827.04
2018-08-12T13:53:59.621Z,99816.11
2018-08-12T13:56:27.246Z,99818.19
2018-08-12T13:58:54.903Z,99818.63
2018-08-12T14:01:22.628Z,99806.24
2018-08-12T14:03:50.895Z,99802.20
2018-08-12T14:06:19.182Z,99805.21
2018-08-12T14:08:46.872Z,99801.51
2018-08-12T14:11:14.601Z,99806.14
2018-08-12T14:13:42.384Z,99802.13
2018-08-12T14:16:09.968Z,99801.28
2018-08-12T14:18:37.799Z,99786.36
2018-08-12T14:21:05.647Z,99795.37
2018-08-12T14:23:33.538Z,99776.81
2018-08-12T14:26:01.329Z,99765.24
2018-08-12T14:28:29.087Z,99762.77
2018-08-12T14:30:57.826Z,99762.59
2018-08-12T14:33:25.768Z,99760.34
2018-08-12T14:35:53.561Z,99759.21
2018-08-12T14:38:21.338Z,99756.52
2018-08-12T14:40:54.828Z,99747.49
2018-08-12T14:43:22.533Z,99741.20
2018-08-12T14:45:50.313Z,99737.78
2018-08-12T14:48:18.077Z,99731.86
2018-08-12T14:50:45.864Z,99713.69
2018-08-12T14:53:13.627Z,99717.50
2018-08-12T14:55:41.279Z,99717.42
2018-08-12T14:58:09.105Z,99719.98
2018-08-12T15:00:36.724Z,99707.55
2018-08-12T15:03:04.497Z,99708.53
2018-08-12T15:05:32.229Z,99706.06
2018-08-12T15:07:59.898Z,99706.42
2018-08-12T15:10:27.708Z,99701.64
2018-08-12T15:12:55.446Z,99699.43
2018-08-12T15:15:23.211Z,99693.03
2018-08-12T15:17:50.922Z,99684.59
2018-08-12T15:20:18.636Z,99687.22
2018-08-12T15:22:46.341Z,99682.27
2018-08-12T15:25:16.611Z,99672.68
2018-08-12T15:27:44.471Z,99666.78
2018-08-12T15:30:12.191Z,99657.25
2018-08-12T15:32:40.439Z,99654.64
2018-08-12T15:35:08.798Z,99665.80
2018-08-12T15:37:36.634Z,99667.13
2018-08-12T15:40:08.012Z,99671.56
2018-08-12T15:42:35.786Z,99661.49
2018-08-12T15:45:05.670Z,99662.52
2018-08-12T15:47:33.416Z,99656.75
2018-08-12T15:50:01.237Z,99666.81
2018-08-12T15:52:28.919Z,99663.30
2018-08-12T15:54:56.652Z,99656.04
2018-08-12T15:57:24.356Z,99653.09
2018-08-12T15:59:52.069Z,99645.61
2018-08-12T16:02:19.663Z,99643.44
2018-08-12T16:04:47.372Z,99644.10
2018-08-12T16:07:15.010Z,99646.63
2018-08-12T16:09:42.684Z,99637.22
2018-08-12T16:12:10.699Z,99637.47
2018-08-12T16:14:38.341Z,99635.11
2018-08-12T16:17:06.334Z,99628.71
2018-08-12T16:19:34.000Z,99622.91
2018-08-12T16:22:01.689Z,99614.28
2018-08-12T16:24:29.382Z,99623.47
2018-08-12T16:26:57.027Z,99611.89
2018-08-12T16:29:24.720Z,99603.39
2018-08-12T16:31:52.381Z,99597.45
2018-08-12T16:34:20.082Z,99592.55
2018-08-12T16:36:47.754Z,99595.22
2018-08-12T16:39:15.499Z,99584.54
2018-08-12T16:41:43.259Z,99579.28
2018-08-12T16:44:11.007Z,99576.89
2018-08-12T16:46:38.704Z,99580.08
2018-08-12T16:49:06.367Z,99572.81
2018-08-12T16:51:40.766Z,99566.48
2018-08-12T16:54:08.776Z,99567.55
2018-08-12T16:56:36.453Z,99561.94
2018-08-12T16:59:04.487Z,99564.13
2018-08-12T17:01:32.215Z,99557.03
2018-08-12T17:03:59.990Z,99549.78
2018-08-12T17:06:28.100Z,99545.52
2018-08-12T17:08:56.020Z,99559.63
2018-08-12T17:11:24.009Z,99557.55
2018-08-12T17:13:51.795Z,99544.55
2018-08-12T17:16:19.589Z,99543.38
2018-08-12T17:18:47.521Z,99545.33
2018-08-12T17:21:15.461Z,99542.33
2018-08-12T17:23:43.236Z,99536.64
2018-08-12T17:26:10.918Z,99526.70
2018-08-12T17:28:38.671Z,99522.13
2018-08-12T17:31:06.363Z,99520.48
2018-08-12T17:33:34.386Z,99520.46
2018-08-12T17:36:02.101Z,99517.06
2018-08-12T17:38:29.710Z,99512.31
2018-08-12T17:40:57.388Z,99511.94
2018-08-12T17:45:59.604Z,99506.85
2018-08-12T17:48:27.310Z,99479.36
2018-08-12T17:50:55.022Z,99495.84
2018-08-12T17:53:22.721Z,99493.70
2018-08-12T17:55:50.433Z,99495.80
2018-08-12T17:58:18.135Z,99489.87
2018-08-12T18:00:45.836Z,99499.63
2018-08-12T18:03:13.580Z,99490.19
2018-08-12T18:05:41.614Z,99494.75
2018-08-12T18:08:09.592Z,99498.63
2018-08-12T18:10:37.253Z,99491.37
2018-08-12T18:13:05.076Z,99491.63
2018-08-12T18:15:32.893Z,99491.70
2018-08-12T18:18:00.658Z,99493.88
2018-08-12T18:20:28.528Z,99477.88
2018-08-12T18:22:56.259Z,99495.35
2018-08-12T18:25:24.023Z,99489.27
2018-08-12T18:27:51.723Z,99482.73
2018-08-12T18:30:19.500Z,99486.77
2018-08-12T18:32:47.262Z,99487.14
2018-08-12T18:35:15.077Z,99488.29
2018-08-12T18:37:42.946Z,99489.50
2018-08-12T18:40:11.563Z,99490.92
2018-08-12T18:42:39.462Z,99484.13
2018-08-12T18:45:07.536Z,99495.78
2018-08-12T18:47:35.487Z,99497.97
2018-08-12T18:50:05.276Z,99496.16
2018-08-12T18:52:33.053Z,99497.39
2018-08-12T18:55:00.893Z,99493.38
2018-08-12T18:57:28.891Z,99497.95
2018-08-12T18:59:56.879Z,99494.51
2018-08-12T19:02:24.720Z,99490.23
2018-08-12T19:04:52.532Z,99495.09
2018-08-12T19:07:20.288Z,99489.56
2018-08-12T19:09:48.621Z,99488.90
2018-08-12T19:12:16.500Z,99475.75
2018-08-12T19:14:44.361Z,99480.91
2018-08-12T19:17:12.330Z,99474.87
2018-08-12T19:19:40.126Z,99472.24
2018-08-12T19:22:08.843Z,99470.44
2018-08-12T19:24:36.758Z,99473.53
2018-08-12T19:27:04.448Z,99473.04
2018-08-12T19:29:32.661Z,99479.02
2018-08-12T19:32:00.694Z,99472.45
2018-08-12T19:34:28.585Z,99471.86
2018-08-12T19:36:56.779Z,99476.09
2018-08-12T19:39:24.959Z,99474.17
2018-08-12T19:41:52.684Z,99469.05
2018-08-12T19:44:20.501Z,99471.53
2018-08-12T19:46:48.305Z,99464.01
2018-08-12T19:49:16.502Z,99468.91
2018-08-12T19:51:44.294Z,99466.23
2018-08-12T19:54:12.088Z,99466.44
2018-08-12T19:56:40.166Z,99463.73
2018-08-12T19:59:08.926Z,99259.56
2018-08-12T20:01:36.788Z,99240.75
2018-08-12T20:04:04.596Z,99463.55
2018-08-12T20:06:32.470Z,99454.92
2018-08-12T20:09:00.354Z,99457.71
2018-08-12T20:11:28.172Z,99459.55
2018-08-12T20:13:56.024Z,99458.81
2018-08-12T20:16:24.107Z,99463.33
2018-08-12T20:18:51.889Z,99467.02
2018-08-12T20:21:19.656Z,99457.05
2018-08-12T20:23:47.437Z,99466.09
2018-08-12T20:26:15.378Z,99466.70
2018-08-12T20:28:43.065Z,99460.22
2018-08-12T20:31:11.015Z,99464.12
2018-08-12T20:33:38.702Z,99467.41
2018-08-12T20:36:07.387Z,99468.13
2018-08-12T20:38:35.091Z,99468.04
2018-08-12T20:41:02.800Z,99472.12
2018-08-12T20:43:30.514Z,99465.94
2018-08-12T20:45:58.408Z,99463.17
2018-08-12T20:48:26.212Z,99468.40
2018-08-12T20:50:54.059Z,99466.15
2018-08-12T20:53:22.089Z,99462.21
2018-08-12T20:55:49.907Z,99463.44
2018-08-12T20:58:17.611Z,99462.09
2018-08-12T21:00:45.550Z,99455.62
2018-08-12T21:03:13.382Z,99454.02
2018-08-12T21:05:41.235Z,99450.11
2018-08-12T21:08:09.195Z,99457.14
2018-08-12T21:10:37.126Z,99455.08
2018-08-12T21:13:05.166Z,99453.59
2018-08-12T21:15:32.951Z,99453.97
2018-08-12T21:18:00.726Z,99450.52
2018-08-12T21:20:28.631Z,99445.77
2018-08-12T21:22:56.370Z,99442.87
2018-08-12T21:25:24.075Z,99439.46
2018-08-12T21:27:51.919Z,99439.33
2018-08-12T21:30:19.626Z,99438.54
2018-08-12T21:32:47.333Z,99441.09
2018-08-12T21:35:15.053Z,99444.31
2018-08-12T21:37:42.818Z,99439.72
2018-08-12T21:40:10.770Z,99437.00
2018-08-12T21:42:38.533Z,99434.28
2018-08-12T21:45:06.355Z,99432.21
2018-08-12T21:47:34.391Z,99428.27
2018-08-12T21:50:02.118Z,99423.13
2018-08-12T21:52:29.877Z,99425.95
2018-08-12T21:54:57.736Z,99423.73
2018-08-12T21:57:25.744Z,99428.05
2018-08-12T21:59:53.520Z,99423.70
2018-08-12T22:02:21.235Z,99431.30
2018-08-12T22:04:48.964Z,99425.86
2018-08-12T22:07:16.781Z,99427.48
2018-08-12T22:09:44.614Z,99422.88
2018-08-12T22:12:12.343Z,99422.68
2018-08-12T22:14:40.024Z,99429.83
2018-08-12T22:17:07.773Z,99420.94
2018-08-12T22:19:35.571Z,99421.02
2018-08-12T22:22:03.709Z,99422.60
2018-08-12T22:24:31.461Z,99418.86
2018-08-12T22:26:59.142Z,99420.05
2018-08-12T22:29:26.939Z,99415.88
2018-08-12T22:31:54.770Z,99409.84
2018-08-12T22:34:22.591Z,99407.74
2018-08-12T22:36:50.450Z,99410.33
2018-08-12T22:39:18.175Z,99406.70
2018-08-12T22:41:45.858Z,99407.66
2018-08-12T22:44:13.522Z,99398.88
2018-08-12T22:46:47.879Z,99401.87
2018-08-12T22:49:15.505Z,99396.47
2018-08-12T22:51:43.194Z,99396.35
2018-08-12T22:54:10.999Z,99394.11
2018-08-12T22:56:38.661Z,99390.86
2018-08-12T22:59:06.497Z,99387.83
2018-08-12T23:01:34.588Z,99390.48
2018-08-12T23:04:02.293Z,99395.83
2018-08-12T23:06:36.776Z,99398.22
2018-08-12T23:09:07.276Z,99394.20
2018-08-12T23:11:35.180Z,99392.54
2018-08-12T23:14:03.331Z,99387.45
2018-08-12T23:16:48.499Z,99385.55
2018-08-12T23:19:16.337Z,99383.51
2018-08-12T23:21:44.159Z,99379.70
2018-08-12T23:24:11.931Z,99380.58
2018-08-12T23:26:39.706Z,99385.41
2018-08-12T23:29:07.367Z,99382.82
2018-08-12T23:31:35.205Z,99380.56
2018-08-12T23:34:02.948Z,99377.64
2018-08-12T23:36:30.675Z,99375.03
2018-08-12T23:38:58.405Z,99374.26
2018-08-12T23:41:26.190Z,99378.03
2018-08-12T23:43:53.941Z,99374.26
2018-08-12T23:46:21.682Z,99369.62
2018-08-12T23:48:49.402Z,99368.74
2018-08-12T23:51:17.102Z,99365.85
2018-08-12T23:53:44.823Z,99362.53
2018-08-12T23:56:12.575Z,99362.88
2018-08-12T23:58:40.315Z,99361.20
